Topeka, Kansas
Current Conditions -  °F | °C
As of 1:53 AM on Friday 26 Dec 2014 (Local Time) from KTOP Reporting Station
Clear Clear  
Wind Chill:   Ceiling: Unl
Heat Index:   Visibility: 10mi
Dew Point: -1°   Wind: 7mph
Humidity: 54%   Direction: 190°S
Pressure: 29.8"   Gusts: NA
Location:  39.06°N, 95.68°W
Report Text: KTOP 260753Z AUTO 19006KT 10SM CLR 08/M01 A2980 RMK AO2 SLP091 T00831006 $
Loading
Personal Weather Stations






























Interactive Weather Map New forecast layout! Learn more

10-Day Weather Forecast

Advertisements
Track Severe Weather on mobile